Time;durP1;ratioP1;P1;durP2;ratioP2;P2;SDS_P1;SDS_P2;PMS_P1;PMS_P2;Temp;Humidity;BMP_temperature;BMP_pressure;BME280_temperature;BME280_humidity;BME280_pressure;Samples;Min_cycle;Max_cycle;Signal;HPM_P1;HPM_P2
2023/01/07 00:00:13;;;;;;;122.50;83.38;;;;;;;;;;5083122;28;20331;-75
2023/01/07 00:02:39;;;;;;;226.00;149.38;;;;;;;;;;5073174;28;20078;-77
2023/01/07 00:05:04;;;;;;;260.85;174.57;;;;;;;;;;5082316;28;20024;-77
2023/01/07 00:07:29;;;;;;;265.38;194.60;;;;;;;;;;5089936;28;20023;-76
2023/01/07 00:09:55;;;;;;;217.38;154.02;;;;;;;;;;5082518;28;20059;-76
2023/01/07 00:12:20;;;;;;;101.47;73.78;;;;;;;;;;5089945;28;20437;-77
2023/01/07 00:14:45;;;;;;;168.18;111.90;;;;;;;;;;5087499;28;20027;-75
2023/01/07 00:17:10;;;;;;;117.72;80.22;;;;;;;;;;5079393;28;20028;-75
2023/01/07 00:19:36;;;;;;;170.57;118.00;;;;;;;;;;5090061;28;20401;-75
2023/01/07 00:22:01;;;;;;;100.80;69.45;;;;;;;;;;5092814;28;20024;-76
2023/01/07 00:24:26;;;;;;;101.72;68.80;;;;;;;;;;5096088;28;20023;-76
2023/01/07 00:26:52;;;;;;;166.82;104.68;;;;;;;;;;5095431;28;20430;-75
2023/01/07 00:29:18;;;;;;;222.57;141.05;;;;;;;;;;5076017;28;20119;-77
2023/01/07 00:31:43;;;;;;;197.40;124.28;;;;;;;;;;5091403;28;20389;-76
2023/01/07 00:34:09;;;;;;;163.25;105.38;;;;;;;;;;5077156;28;20035;-76
2023/01/07 00:36:36;;;;;;;179.82;119.90;;;;;;;;;;5095278;28;20080;-78
2023/01/07 00:39:03;;;;;;;178.40;121.43;;;;;;;;;;5092385;28;20039;-77
2023/01/07 00:41:28;;;;;;;175.52;112.18;;;;;;;;;;5092926;28;20059;-76
2023/01/07 00:43:55;;;;;;;173.98;118.07;;;;;;;;;;5082206;28;20769;-79
2023/01/07 00:46:20;;;;;;;181.45;117.03;;;;;;;;;;5089884;28;20016;-76
2023/01/07 00:48:46;;;;;;;156.13;100.75;;;;;;;;;;5067802;28;20038;-77
2023/01/07 00:51:12;;;;;;;177.40;115.13;;;;;;;;;;5093105;28;20043;-75
2023/01/07 00:53:37;;;;;;;147.55;94.53;;;;;;;;;;5076441;28;20343;-75
2023/01/07 00:56:03;;;;;;;176.57;114.55;;;;;;;;;;5091695;28;20498;-77
2023/01/07 00:58:28;;;;;;;236.13;148.63;;;;;;;;;;5072496;28;20101;-75
2023/01/07 01:00:55;;;;;;;161.20;101.80;;;;;;;;;;5089340;28;20023;-75
2023/01/07 01:03:20;;;;;;;252.60;157.65;;;;;;;;;;5090525;28;20032;-75
2023/01/07 01:05:45;;;;;;;239.95;161.20;;;;;;;;;;5086203;28;20058;-74
2023/01/07 01:08:10;;;;;;;129.35;86.13;;;;;;;;;;5091608;28;20023;-74
2023/01/07 01:10:36;;;;;;;193.60;126.28;;;;;;;;;;5078446;28;20431;-76
2023/01/07 01:13:02;;;;;;;201.65;129.07;;;;;;;;;;5080079;28;20020;-76
2023/01/07 01:15:27;;;;;;;221.65;142.55;;;;;;;;;;5085469;28;20058;-77
2023/01/07 01:17:52;;;;;;;216.75;138.95;;;;;;;;;;5094064;28;20057;-75
2023/01/07 01:20:18;;;;;;;170.45;110.03;;;;;;;;;;5093046;28;20122;-79
2023/01/07 01:22:44;;;;;;;171.82;111.22;;;;;;;;;;5094663;28;20439;-76
2023/01/07 01:25:10;;;;;;;168.30;111.05;;;;;;;;;;5095907;28;20028;-76
2023/01/07 01:27:36;;;;;;;151.13;100.18;;;;;;;;;;5083522;28;20020;-76
2023/01/07 01:30:03;;;;;;;150.65;100.10;;;;;;;;;;5079222;28;20023;-76
2023/01/07 01:32:29;;;;;;;171.35;117.30;;;;;;;;;;5073160;28;20036;-75
2023/01/07 01:34:54;;;;;;;182.57;128.02;;;;;;;;;;5090359;28;20026;-74
2023/01/07 01:37:19;;;;;;;262.10;191.45;;;;;;;;;;5094080;28;20033;-74
2023/01/07 01:39:45;;;;;;;191.82;133.98;;;;;;;;;;5092755;28;20032;-75
2023/01/07 01:42:18;;;;;;;150.50;102.18;;;;;;;;;;5062607;28;20019;-75
2023/01/07 01:44:54;;;;;;;212.57;149.75;;;;;;;;;;5063420;28;20051;-77
2023/01/07 01:47:35;;;;;;;195.02;132.43;;;;;;;;;;5077596;28;20073;-76
2023/01/07 01:50:04;;;;;;;172.50;117.80;;;;;;;;;;5087299;28;20034;-74
2023/01/07 01:52:33;;;;;;;133.93;94.35;;;;;;;;;;5091464;28;20027;-75
2023/01/07 01:55:00;;;;;;;151.05;102.53;;;;;;;;;;5094164;28;20135;-76
2023/01/07 01:57:27;;;;;;;176.77;120.18;;;;;;;;;;5093570;28;20806;-75
2023/01/07 01:59:53;;;;;;;139.95;96.03;;;;;;;;;;5093605;28;20036;-78
2023/01/07 02:02:21;;;;;;;113.45;84.80;;;;;;;;;;5059793;28;20514;-75
2023/01/07 02:04:47;;;;;;;369.33;249.75;;;;;;;;;;5083056;28;20034;-76
2023/01/07 02:07:16;;;;;;;160.80;113.72;;;;;;;;;;5095486;28;20019;-75
2023/01/07 02:09:41;;;;;;;110.53;78.75;;;;;;;;;;5086192;28;20020;-75
2023/01/07 02:12:29;;;;;;;130.27;89.43;;;;;;;;;;5079874;28;20097;-76
2023/01/07 02:15:16;;;;;;;141.75;99.38;;;;;;;;;;5087433;28;20028;-75
2023/01/07 02:18:00;;;;;;;79.60;59.28;;;;;;;;;;5079700;28;20532;-75
2023/01/07 02:20:43;;;;;;;112.95;80.35;;;;;;;;;;5083360;28;20038;-75
2023/01/07 02:23:27;;;;;;;80.60;58.25;;;;;;;;;;5097278;28;20053;-75
2023/01/07 02:25:55;;;;;;;73.97;53.28;;;;;;;;;;5091517;28;20081;-74
2023/01/07 02:28:30;;;;;;;83.82;64.82;;;;;;;;;;5092348;28;20121;-76
2023/01/07 02:31:13;;;;;;;97.30;77.82;;;;;;;;;;5090313;28;20432;-75
2023/01/07 02:33:50;;;;;;;53.17;43.30;;;;;;;;;;5079666;28;20021;-74
2023/01/07 02:36:15;;;;;;;81.57;58.35;;;;;;;;;;5093766;28;20035;-78
2023/01/07 02:38:55;;;;;;;60.10;44.70;;;;;;;;;;5090518;28;20325;-75
2023/01/07 02:41:29;;;;;;;64.88;46.95;;;;;;;;;;5091033;28;20031;-75
2023/01/07 02:43:55;;;;;;;65.05;45.70;;;;;;;;;;5087569;28;20055;-77
2023/01/07 02:46:52;;;;;;;62.13;44.25;;;;;;;;;;5088388;28;20427;-76
2023/01/07 02:49:17;;;;;;;145.60;96.70;;;;;;;;;;4972014;28;20041;-77
2023/01/07 02:51:44;;;;;;;162.60;105.22;;;;;;;;;;4986789;28;20048;-76
2023/01/07 02:54:18;;;;;;;81.95;57.50;;;;;;;;;;4995183;28;20057;-75
2023/01/07 02:56:46;;;;;;;89.90;62.97;;;;;;;;;;4996216;28;20073;-74
2023/01/07 02:59:20;;;;;;;100.82;69.00;;;;;;;;;;4991780;28;20058;-77
2023/01/07 03:02:07;;;;;;;99.25;66.05;;;;;;;;;;4993749;28;20033;-76
2023/01/07 03:04:41;;;;;;;87.47;61.22;;;;;;;;;;4956458;28;20052;-77
2023/01/07 03:07:22;;;;;;;104.53;75.15;;;;;;;;;;4994458;28;20060;-78
2023/01/07 03:09:53;;;;;;;113.32;80.03;;;;;;;;;;4994815;28;20026;-77
2023/01/07 03:12:23;;;;;;;105.75;74.13;;;;;;;;;;4986689;28;20040;-75
2023/01/07 03:14:57;;;;;;;115.60;77.35;;;;;;;;;;4988012;28;20068;-75
2023/01/07 03:17:30;;;;;;;126.72;86.53;;;;;;;;;;4975106;28;20026;-75
2023/01/07 03:19:59;;;;;;;120.75;84.10;;;;;;;;;;4986274;28;20029;-76
2023/01/07 03:22:26;;;;;;;105.70;76.93;;;;;;;;;;4995177;28;20019;-74
2023/01/07 03:24:54;;;;;;;113.30;83.78;;;;;;;;;;5043019;28;20024;-77
2023/01/07 03:27:21;;;;;;;119.03;85.65;;;;;;;;;;5096168;28;20534;-75
2023/01/07 03:29:47;;;;;;;100.10;74.40;;;;;;;;;;5076973;28;20031;-77
2023/01/07 03:32:12;;;;;;;61.30;43.85;;;;;;;;;;5089222;28;20028;-77
2023/01/07 03:34:38;;;;;;;83.88;62.03;;;;;;;;;;5069247;28;20429;-76
2023/01/07 03:37:07;;;;;;;136.18;100.20;;;;;;;;;;5090690;28;20080;-75
2023/01/07 03:39:34;;;;;;;133.48;102.72;;;;;;;;;;5097310;28;20115;-75
2023/01/07 03:44:43;;;;;;;89.50;65.97;;;;;;;;;;5084651;28;20096;-75
2023/01/07 03:47:09;;;;;;;77.18;59.55;;;;;;;;;;5076289;28;20032;-76
2023/01/07 03:49:34;;;;;;;95.50;67.55;;;;;;;;;;5090366;28;20032;-75
2023/01/07 03:52:00;;;;;;;77.38;58.33;;;;;;;;;;5071088;28;20074;-77
2023/01/07 03:54:25;;;;;;;98.88;77.15;;;;;;;;;;5071149;28;20035;-76
2023/01/07 03:56:50;;;;;;;92.32;71.47;;;;;;;;;;5093116;28;20028;-76
2023/01/07 03:59:15;;;;;;;95.00;71.35;;;;;;;;;;5075352;28;20051;-75
2023/01/07 04:01:41;;;;;;;89.72;68.30;;;;;;;;;;5081470;28;20024;-77
2023/01/07 04:04:06;;;;;;;84.90;63.28;;;;;;;;;;5089485;28;20055;-76
2023/01/07 04:06:31;;;;;;;77.60;59.15;;;;;;;;;;5093436;28;20028;-75
2023/01/07 04:08:57;;;;;;;101.72;68.47;;;;;;;;;;5081294;28;20111;-76
2023/01/07 04:11:22;;;;;;;90.85;59.90;;;;;;;;;;5091046;28;20024;-75
2023/01/07 04:13:47;;;;;;;119.20;80.40;;;;;;;;;;5095315;28;20093;-75
2023/01/07 04:16:13;;;;;;;85.57;60.00;;;;;;;;;;5076325;28;20031;-74
2023/01/07 04:18:38;;;;;;;74.30;52.55;;;;;;;;;;5087547;28;20031;-75
2023/01/07 04:21:03;;;;;;;51.95;37.97;;;;;;;;;;5097003;28;20028;-75
2023/01/07 04:23:29;;;;;;;100.68;70.32;;;;;;;;;;5085527;28;20031;-78
2023/01/07 04:25:54;;;;;;;117.60;83.03;;;;;;;;;;5080924;28;20027;-76
2023/01/07 04:28:19;;;;;;;87.82;64.75;;;;;;;;;;5094453;28;20032;-77
2023/01/07 04:30:44;;;;;;;97.78;67.65;;;;;;;;;;5092839;28;20355;-78
2023/01/07 04:33:10;;;;;;;110.50;72.55;;;;;;;;;;5084707;28;20062;-76
2023/01/07 04:35:35;;;;;;;105.63;67.47;;;;;;;;;;5092908;28;20344;-76
2023/01/07 04:38:00;;;;;;;90.15;58.78;;;;;;;;;;5093821;28;20102;-77
2023/01/07 04:40:26;;;;;;;96.13;62.15;;;;;;;;;;5080466;28;20035;-77
2023/01/07 04:42:51;;;;;;;80.75;54.00;;;;;;;;;;5089698;28;20058;-77
2023/01/07 04:45:16;;;;;;;70.82;49.88;;;;;;;;;;5093589;28;20039;-76
2023/01/07 04:47:42;;;;;;;78.70;53.42;;;;;;;;;;5070269;28;20034;-78
2023/01/07 04:50:07;;;;;;;132.93;100.05;;;;;;;;;;5096557;28;20324;-76
2023/01/07 04:52:33;;;;;;;104.82;76.80;;;;;;;;;;5073355;28;20304;-78
2023/01/07 04:54:58;;;;;;;90.72;67.22;;;;;;;;;;5081716;28;20110;-75
2023/01/07 04:57:23;;;;;;;87.65;61.35;;;;;;;;;;5081393;28;20127;-76
2023/01/07 04:59:49;;;;;;;68.13;49.72;;;;;;;;;;5094694;28;20051;-76
2023/01/07 05:02:14;;;;;;;80.40;58.92;;;;;;;;;;5096259;28;20033;-76
2023/01/07 05:04:39;;;;;;;59.55;42.70;;;;;;;;;;5094195;28;20466;-76
2023/01/07 05:07:05;;;;;;;84.25;56.30;;;;;;;;;;5096351;28;20359;-77
2023/01/07 05:09:30;;;;;;;131.30;86.45;;;;;;;;;;5094463;28;20344;-76
2023/01/07 05:11:55;;;;;;;96.65;64.88;;;;;;;;;;5091802;28;20048;-76
2023/01/07 05:14:20;;;;;;;73.63;49.15;;;;;;;;;;5077183;28;20028;-76
2023/01/07 05:16:46;;;;;;;49.33;35.83;;;;;;;;;;5072063;28;20336;-77
2023/01/07 05:19:11;;;;;;;87.60;59.85;;;;;;;;;;5087653;28;20032;-76
2023/01/07 05:21:37;;;;;;;113.15;76.75;;;;;;;;;;5095981;28;20032;-76
2023/01/07 05:24:02;;;;;;;169.30;114.15;;;;;;;;;;5092175;28;20058;-76
2023/01/07 05:26:27;;;;;;;117.85;83.07;;;;;;;;;;5096400;28;20034;-77
2023/01/07 05:28:52;;;;;;;102.80;72.35;;;;;;;;;;5081878;28;20016;-76
2023/01/07 05:31:19;;;;;;;88.43;61.60;;;;;;;;;;5083786;28;20088;-76
2023/01/07 05:33:44;;;;;;;96.10;66.85;;;;;;;;;;5095187;28;20078;-76
2023/01/07 05:36:10;;;;;;;93.85;67.00;;;;;;;;;;5090346;28;20447;-77
2023/01/07 05:38:35;;;;;;;126.10;94.78;;;;;;;;;;5095270;28;20052;-76
2023/01/07 05:41:00;;;;;;;94.97;67.03;;;;;;;;;;5085685;28;20031;-76
2023/01/07 05:43:25;;;;;;;83.80;60.08;;;;;;;;;;5070826;28;20175;-77
2023/01/07 05:45:51;;;;;;;82.82;60.10;;;;;;;;;;5079728;28;20023;-76
2023/01/07 05:48:16;;;;;;;60.35;44.53;;;;;;;;;;5087550;28;20405;-75
2023/01/07 05:50:41;;;;;;;50.60;38.33;;;;;;;;;;5092153;28;20027;-74
2023/01/07 05:53:07;;;;;;;52.63;34.90;;;;;;;;;;5090967;28;20093;-75
2023/01/07 05:55:32;;;;;;;66.68;46.45;;;;;;;;;;5077615;28;20077;-74
2023/01/07 05:57:57;;;;;;;105.05;74.22;;;;;;;;;;5087881;28;20052;-75
2023/01/07 06:00:23;;;;;;;107.30;80.32;;;;;;;;;;5093556;28;20346;-74
2023/01/07 06:02:48;;;;;;;106.05;79.63;;;;;;;;;;5074592;28;20020;-75
2023/01/07 06:05:13;;;;;;;85.15;61.97;;;;;;;;;;5068378;28;20080;-75
2023/01/07 06:07:39;;;;;;;162.35;96.07;;;;;;;;;;5069776;28;20012;-76
2023/01/07 06:10:04;;;;;;;250.02;130.23;;;;;;;;;;5066706;28;20058;-76
2023/01/07 06:12:30;;;;;;;170.95;107.00;;;;;;;;;;5066255;28;20400;-74
2023/01/07 06:14:55;;;;;;;205.07;134.38;;;;;;;;;;5065837;28;20106;-74
2023/01/07 06:17:20;;;;;;;237.32;149.23;;;;;;;;;;5066500;28;20344;-76
2023/01/07 06:19:46;;;;;;;127.78;88.15;;;;;;;;;;5085062;28;20032;-76
2023/01/07 06:22:12;;;;;;;140.15;93.63;;;;;;;;;;5076596;28;20023;-75
2023/01/07 06:24:37;;;;;;;149.80;99.70;;;;;;;;;;5092391;28;20346;-79
2023/01/07 06:27:02;;;;;;;142.70;97.47;;;;;;;;;;5093835;28;20342;-78
2023/01/07 06:29:28;;;;;;;100.85;81.82;;;;;;;;;;5095155;28;20032;-76
2023/01/07 06:31:53;;;;;;;192.18;132.20;;;;;;;;;;5091377;28;20092;-76
2023/01/07 06:34:18;;;;;;;182.00;126.13;;;;;;;;;;5093386;28;20316;-75
2023/01/07 06:36:44;;;;;;;214.93;142.30;;;;;;;;;;5092508;28;20110;-79
2023/01/07 06:39:10;;;;;;;182.43;128.77;;;;;;;;;;5079354;28;20422;-76
2023/01/07 06:41:35;;;;;;;261.40;194.35;;;;;;;;;;5066950;28;20024;-75
2023/01/07 06:44:00;;;;;;;155.82;114.03;;;;;;;;;;5059444;28;20101;-75
2023/01/07 06:46:25;;;;;;;143.77;105.78;;;;;;;;;;5074497;28;20477;-75
2023/01/07 06:48:51;;;;;;;177.23;126.97;;;;;;;;;;5089479;28;20022;-74
2023/01/07 06:51:16;;;;;;;223.90;171.75;;;;;;;;;;5085054;28;20135;-76
2023/01/07 06:53:41;;;;;;;169.73;124.68;;;;;;;;;;5082521;28;20023;-79
2023/01/07 06:56:07;;;;;;;146.98;100.55;;;;;;;;;;5078761;28;20070;-77
2023/01/07 06:58:32;;;;;;;127.22;88.13;;;;;;;;;;5076336;28;20048;-75
2023/01/07 07:01:02;;;;;;;76.93;54.78;;;;;;;;;;5078824;28;20059;-76
2023/01/07 07:03:27;;;;;;;145.60;104.90;;;;;;;;;;5080275;28;20031;-76
2023/01/07 07:05:53;;;;;;;231.38;148.05;;;;;;;;;;5083743;28;20326;-76
2023/01/07 07:08:19;;;;;;;201.90;134.82;;;;;;;;;;5086890;28;20078;-75
2023/01/07 07:10:44;;;;;;;235.27;176.15;;;;;;;;;;5099026;28;20327;-75
2023/01/07 07:13:10;;;;;;;142.05;106.60;;;;;;;;;;5098972;28;20036;-74
2023/01/07 07:15:36;;;;;;;141.20;108.22;;;;;;;;;;5093302;28;20093;-77
2023/01/07 07:18:02;;;;;;;108.38;88.13;;;;;;;;;;5084634;28;20396;-76
2023/01/07 07:20:27;;;;;;;161.10;135.25;;;;;;;;;;5066010;28;20088;-74
2023/01/07 07:22:52;;;;;;;149.45;123.47;;;;;;;;;;5094956;28;20110;-74
2023/01/07 07:25:18;;;;;;;144.07;114.35;;;;;;;;;;5093504;28;20194;-78
2023/01/07 07:27:44;;;;;;;237.55;188.82;;;;;;;;;;5084671;28;20089;-77
2023/01/07 07:30:10;;;;;;;336.35;260.25;;;;;;;;;;5086817;28;20034;-77
2023/01/07 07:32:35;;;;;;;268.95;214.07;;;;;;;;;;5082866;28;20023;-76
2023/01/07 07:35:00;;;;;;;153.98;125.95;;;;;;;;;;5087611;28;20446;-75
2023/01/07 07:37:25;;;;;;;132.02;113.18;;;;;;;;;;5076464;28;20108;-77
2023/01/07 07:39:51;;;;;;;129.55;103.53;;;;;;;;;;5078149;28;20027;-81
2023/01/07 07:42:16;;;;;;;96.18;83.57;;;;;;;;;;5096249;28;20384;-79
2023/01/07 07:44:41;;;;;;;61.42;51.15;;;;;;;;;;5096431;28;20107;-79
2023/01/07 07:47:07;;;;;;;62.20;50.28;;;;;;;;;;5097326;28;20111;-78
2023/01/07 07:49:32;;;;;;;97.50;81.43;;;;;;;;;;5065277;28;20107;-78
2023/01/07 07:51:57;;;;;;;123.78;101.45;;;;;;;;;;5077287;28;20426;-77
2023/01/07 07:54:22;;;;;;;129.32;104.93;;;;;;;;;;5078873;28;20982;-77
2023/01/07 07:56:48;;;;;;;115.40;92.72;;;;;;;;;;5091897;28;20024;-78
2023/01/07 07:59:13;;;;;;;71.10;57.50;;;;;;;;;;5094232;28;20056;-77
2023/01/07 08:01:38;;;;;;;77.63;56.72;;;;;;;;;;5097220;28;20354;-79
2023/01/07 08:04:04;;;;;;;73.07;60.55;;;;;;;;;;5091973;28;20474;-77
2023/01/07 08:06:29;;;;;;;73.28;59.42;;;;;;;;;;5076734;28;20064;-78
2023/01/07 08:08:54;;;;;;;57.47;46.22;;;;;;;;;;5068021;28;20063;-78
2023/01/07 08:11:20;;;;;;;144.25;110.78;;;;;;;;;;5083324;28;20016;-77
2023/01/07 08:13:45;;;;;;;97.85;78.05;;;;;;;;;;5076275;28;20088;-77
2023/01/07 08:16:10;;;;;;;49.17;40.80;;;;;;;;;;5085937;28;20028;-77
2023/01/07 08:18:36;;;;;;;50.45;41.40;;;;;;;;;;5092760;28;20136;-78
2023/01/07 08:21:01;;;;;;;52.30;44.85;;;;;;;;;;5083141;28;20442;-76
2023/01/07 08:23:27;;;;;;;69.45;59.75;;;;;;;;;;5081762;28;20439;-77
2023/01/07 08:25:52;;;;;;;58.53;48.88;;;;;;;;;;5087514;28;20028;-79
2023/01/07 08:28:17;;;;;;;86.72;74.18;;;;;;;;;;5078915;28;20024;-77
2023/01/07 08:30:43;;;;;;;59.72;50.25;;;;;;;;;;5085614;28;20076;-78
2023/01/07 08:33:09;;;;;;;61.22;52.20;;;;;;;;;;5058126;28;20122;-77
2023/01/07 08:35:34;;;;;;;141.18;105.68;;;;;;;;;;5084685;28;20036;-76
2023/01/07 08:38:06;;;;;;;60.17;50.85;;;;;;;;;;5075253;28;20015;-78
2023/01/07 08:40:32;;;;;;;231.90;175.95;;;;;;;;;;5096302;28;20081;-78
2023/01/07 08:42:58;;;;;;;118.65;93.65;;;;;;;;;;5076076;28;20053;-78
2023/01/07 08:45:24;;;;;;;102.70;86.93;;;;;;;;;;5087079;28;20320;-78
2023/01/07 08:47:49;;;;;;;135.20;96.72;;;;;;;;;;5068324;28;20026;-78
2023/01/07 08:50:15;;;;;;;114.50;81.38;;;;;;;;;;5087838;28;20028;-79
2023/01/07 08:52:40;;;;;;;57.58;43.20;;;;;;;;;;5096643;28;20028;-77
2023/01/07 08:55:05;;;;;;;38.88;30.95;;;;;;;;;;5096769;28;20062;-78
2023/01/07 08:57:31;;;;;;;60.35;46.05;;;;;;;;;;5096006;28;20273;-78
2023/01/07 08:59:56;;;;;;;48.03;39.15;;;;;;;;;;5097404;28;20378;-78
2023/01/07 09:02:21;;;;;;;33.45;26.55;;;;;;;;;;5085597;28;20060;-78
2023/01/07 09:04:46;;;;;;;32.05;26.67;;;;;;;;;;5092603;28;20122;-78
2023/01/07 09:07:12;;;;;;;25.90;21.23;;;;;;;;;;5094187;28;20047;-78
2023/01/07 09:09:37;;;;;;;18.27;14.00;;;;;;;;;;5087646;28;20327;-76
2023/01/07 09:12:03;;;;;;;48.78;36.90;;;;;;;;;;5091743;28;20153;-77
2023/01/07 09:14:29;;;;;;;34.20;25.58;;;;;;;;;;5093424;28;20037;-78
2023/01/07 09:16:54;;;;;;;44.55;30.60;;;;;;;;;;5097122;28;20023;-76
2023/01/07 09:19:19;;;;;;;57.40;45.40;;;;;;;;;;5098865;28;20077;-78
2023/01/07 09:21:45;;;;;;;30.77;24.70;;;;;;;;;;5095382;28;20574;-77
2023/01/07 09:24:10;;;;;;;38.13;30.75;;;;;;;;;;5094126;28;20348;-78
2023/01/07 09:26:35;;;;;;;25.45;20.58;;;;;;;;;;5092056;28;20051;-77
2023/01/07 09:29:00;;;;;;;22.23;19.92;;;;;;;;;;5077425;28;20439;-78
2023/01/07 09:31:26;;;;;;;13.32;11.10;;;;;;;;;;5094775;28;20375;-78
2023/01/07 09:33:51;;;;;;;25.48;19.85;;;;;;;;;;5096020;28;20454;-77
2023/01/07 09:36:16;;;;;;;69.20;58.00;;;;;;;;;;5093746;28;20030;-78
2023/01/07 09:38:42;;;;;;;35.75;30.05;;;;;;;;;;5097207;28;20104;-78
2023/01/07 09:41:26;;;;;;;31.30;24.40;;;;;;;;;;5094913;28;20024;-78
2023/01/07 09:43:53;;;;;;;28.55;24.63;;;;;;;;;;5091650;28;20039;-77
2023/01/07 09:46:19;;;;;;;28.38;22.90;;;;;;;;;;5094757;28;20024;-79
2023/01/07 09:48:45;;;;;;;12.45;10.45;;;;;;;;;;5096314;28;20453;-78
2023/01/07 09:51:14;;;;;;;31.55;24.60;;;;;;;;;;5078563;28;20832;-78
2023/01/07 09:53:45;;;;;;;22.75;16.33;;;;;;;;;;5095805;28;20028;-78
2023/01/07 09:56:17;;;;;;;56.47;40.85;;;;;;;;;;5095700;28;20027;-78
2023/01/07 09:58:45;;;;;;;26.15;22.88;;;;;;;;;;5095122;28;20042;-78
2023/01/07 10:01:21;;;;;;;28.13;19.10;;;;;;;;;;5095565;28;20042;-78
2023/01/07 10:03:50;;;;;;;22.48;17.25;;;;;;;;;;5094206;28;20032;-78
2023/01/07 10:06:15;;;;;;;12.30;10.40;;;;;;;;;;5096104;28;20361;-77
2023/01/07 10:08:44;;;;;;;11.90;10.63;;;;;;;;;;5097059;28;20129;-77
2023/01/07 10:11:27;;;;;;;7.38;6.40;;;;;;;;;;5093054;28;20031;-77
2023/01/07 10:14:13;;;;;;;13.35;9.30;;;;;;;;;;5095591;28;20067;-77
2023/01/07 10:16:51;;;;;;;37.72;30.52;;;;;;;;;;5080102;28;20040;-77
2023/01/07 10:19:28;;;;;;;32.03;24.77;;;;;;;;;;5093220;28;20023;-77
2023/01/07 10:21:56;;;;;;;11.82;8.65;;;;;;;;;;5096456;28;20027;-77
2023/01/07 10:24:26;;;;;;;83.57;58.38;;;;;;;;;;5099088;28;20039;-77
2023/01/07 10:26:55;;;;;;;31.45;27.70;;;;;;;;;;5099446;28;20452;-76
2023/01/07 10:29:40;;;;;;;16.30;12.45;;;;;;;;;;5098408;28;20035;-77
2023/01/07 10:32:10;;;;;;;13.23;11.10;;;;;;;;;;5095292;28;20079;-78
2023/01/07 10:34:40;;;;;;;10.57;9.10;;;;;;;;;;5099580;28;20031;-77
2023/01/07 10:37:11;;;;;;;10.23;9.10;;;;;;;;;;5099016;28;20032;-77
2023/01/07 10:39:51;;;;;;;11.50;9.65;;;;;;;;;;5095820;28;20028;-78
2023/01/07 10:42:25;;;;;;;8.50;7.47;;;;;;;;;;5097226;28;20081;-78
2023/01/07 10:45:08;;;;;;;6.60;6.00;;;;;;;;;;5100111;28;20358;-77
2023/01/07 10:47:36;;;;;;;13.48;11.63;;;;;;;;;;5098957;28;20023;-78
2023/01/07 10:50:15;;;;;;;10.98;8.50;;;;;;;;;;5098207;28;20507;-77
2023/01/07 10:52:50;;;;;;;22.83;18.67;;;;;;;;;;5100067;28;20453;-78
2023/01/07 10:55:19;;;;;;;18.52;13.27;;;;;;;;;;5098367;28;20569;-77
2023/01/07 10:57:46;;;;;;;21.42;17.63;;;;;;;;;;5095384;28;20482;-77
2023/01/07 11:00:13;;;;;;;15.55;13.82;;;;;;;;;;5099207;28;20048;-77
2023/01/07 11:02:41;;;;;;;7.82;6.70;;;;;;;;;;5099220;28;20108;-77
2023/01/07 11:05:09;;;;;;;21.13;16.60;;;;;;;;;;5095568;28;20023;-77
2023/01/07 11:07:49;;;;;;;12.35;10.75;;;;;;;;;;5096776;28;20028;-77
2023/01/07 11:10:27;;;;;;;14.63;12.35;;;;;;;;;;5098893;28;20123;-77
2023/01/07 11:12:52;;;;;;;14.88;12.80;;;;;;;;;;5096875;28;20015;-77
2023/01/07 11:15:20;;;;;;;8.18;7.38;;;;;;;;;;5098438;28;20466;-77
2023/01/07 11:17:51;;;;;;;4.13;3.72;;;;;;;;;;5096840;28;20063;-78
2023/01/07 11:20:35;;;;;;;10.98;9.20;;;;;;;;;;5100015;28;20276;-78
2023/01/07 11:23:15;;;;;;;3.30;3.00;;;;;;;;;;5096169;28;20047;-78
2023/01/07 11:25:41;;;;;;;6.22;5.32;;;;;;;;;;5097820;28;20047;-77
2023/01/07 11:28:15;;;;;;;8.18;7.13;;;;;;;;;;5098149;28;20422;-77
2023/01/07 11:30:42;;;;;;;8.15;6.03;;;;;;;;;;5098261;28;20366;-77
2023/01/07 11:33:16;;;;;;;8.77;7.97;;;;;;;;;;5097554;28;20020;-77
2023/01/07 11:35:49;;;;;;;7.35;6.68;;;;;;;;;;5095771;28;20439;-77
2023/01/07 11:38:28;;;;;;;6.25;5.65;;;;;;;;;;5091633;28;20020;-77
2023/01/07 11:40:57;;;;;;;3.72;3.28;;;;;;;;;;5097995;28;20124;-76
2023/01/07 11:43:23;;;;;;;3.47;3.22;;;;;;;;;;5096312;28;20035;-77
2023/01/07 11:45:55;;;;;;;6.07;5.55;;;;;;;;;;5095428;28;20101;-77
2023/01/07 11:48:30;;;;;;;9.27;8.27;;;;;;;;;;5097900;28;20042;-77
2023/01/07 11:51:05;;;;;;;12.73;11.27;;;;;;;;;;5097217;28;20030;-76
2023/01/07 11:53:33;;;;;;;10.05;9.05;;;;;;;;;;5095485;28;20032;-77
2023/01/07 11:55:58;;;;;;;9.13;6.50;;;;;;;;;;5096596;28;20019;-77
2023/01/07 11:58:28;;;;;;;15.13;13.38;;;;;;;;;;5096344;28;20363;-77
2023/01/07 12:01:11;;;;;;;16.10;12.55;;;;;;;;;;5095814;28;20335;-77
2023/01/07 12:03:36;;;;;;;7.97;7.13;;;;;;;;;;5096548;28;20075;-76
2023/01/07 12:06:08;;;;;;;11.27;9.27;;;;;;;;;;5094060;28;20051;-76
2023/01/07 12:08:33;;;;;;;6.85;6.15;;;;;;;;;;5096677;28;20031;-76
2023/01/07 12:11:04;;;;;;;7.35;6.57;;;;;;;;;;5095971;28;20035;-77
2023/01/07 12:13:30;;;;;;;16.85;13.02;;;;;;;;;;5092735;28;20096;-77
2023/01/07 12:15:57;;;;;;;41.92;32.80;;;;;;;;;;5097152;28;20024;-76
2023/01/07 12:18:32;;;;;;;10.93;9.07;;;;;;;;;;5097920;28;20446;-77
2023/01/07 12:21:00;;;;;;;15.00;11.32;;;;;;;;;;5094410;28;20035;-77
2023/01/07 12:23:37;;;;;;;7.38;5.57;;;;;;;;;;5097174;28;20046;-77
2023/01/07 12:26:10;;;;;;;7.63;5.43;;;;;;;;;;5097527;28;20016;-77
2023/01/07 12:28:36;;;;;;;14.70;13.07;;;;;;;;;;5096522;28;20032;-76
2023/01/07 12:31:28;;;;;;;10.68;9.15;;;;;;;;;;5097775;28;20110;-77
2023/01/07 12:34:02;;;;;;;13.25;11.95;;;;;;;;;;5092895;28;20046;-77
2023/01/07 12:36:35;;;;;;;8.32;7.53;;;;;;;;;;5093795;28;20070;-76
2023/01/07 12:39:02;;;;;;;8.95;8.05;;;;;;;;;;5096272;28;20768;-78
2023/01/07 12:41:37;;;;;;;8.52;7.72;;;;;;;;;;5094581;28;20042;-76
2023/01/07 12:44:13;;;;;;;6.93;5.95;;;;;;;;;;5091524;28;20028;-76
2023/01/07 12:46:46;;;;;;;10.60;9.55;;;;;;;;;;5097188;28;20066;-77
2023/01/07 12:49:11;;;;;;;10.38;9.25;;;;;;;;;;5095134;28;20067;-77
2023/01/07 12:51:47;;;;;;;13.55;12.25;;;;;;;;;;5093869;28;20058;-76
2023/01/07 12:54:38;;;;;;;29.38;23.17;;;;;;;;;;5095857;28;20036;-77
2023/01/07 12:57:24;;;;;;;10.80;9.70;;;;;;;;;;5071163;28;20031;-77
2023/01/07 12:59:58;;;;;;;15.63;13.95;;;;;;;;;;5094351;28;20048;-76
2023/01/07 13:02:32;;;;;;;12.43;11.23;;;;;;;;;;5095788;28;20454;-75
2023/01/07 13:05:16;;;;;;;5.68;5.18;;;;;;;;;;5092538;28;20083;-76
2023/01/07 13:07:48;;;;;;;10.57;9.48;;;;;;;;;;5096254;28;20070;-77
2023/01/07 13:10:17;;;;;;;10.63;9.63;;;;;;;;;;5093011;28;20344;-76
2023/01/07 13:12:42;;;;;;;9.82;8.85;;;;;;;;;;5094652;28;20051;-76
2023/01/07 13:15:22;;;;;;;16.85;12.55;;;;;;;;;;5092405;28;20451;-76
2023/01/07 13:17:48;;;;;;;6.78;5.95;;;;;;;;;;5091905;28;20035;-77
2023/01/07 13:20:15;;;;;;;11.13;10.02;;;;;;;;;;5093775;28;20153;-77
2023/01/07 13:22:50;;;;;;;5.70;5.20;;;;;;;;;;5097230;28;20028;-77
2023/01/07 13:25:34;;;;;;;11.00;9.90;;;;;;;;;;5092074;28;20039;-76
2023/01/07 13:28:18;;;;;;;11.98;10.77;;;;;;;;;;5094500;28;20039;-76
2023/01/07 13:30:43;;;;;;;14.70;13.30;;;;;;;;;;5096940;28;20054;-76
2023/01/07 13:33:27;;;;;;;9.13;8.18;;;;;;;;;;5095164;28;20447;-76
2023/01/07 13:35:55;;;;;;;8.10;7.40;;;;;;;;;;5076000;28;20069;-75
2023/01/07 13:38:21;;;;;;;7.47;6.78;;;;;;;;;;5090582;28;20035;-76
2023/01/07 13:40:52;;;;;;;10.90;9.35;;;;;;;;;;5092186;28;20354;-77
2023/01/07 13:43:42;;;;;;;7.43;6.63;;;;;;;;;;5094592;28;20023;-75
2023/01/07 13:46:13;;;;;;;9.20;8.05;;;;;;;;;;5094097;28;20019;-75
2023/01/07 13:48:38;;;;;;;21.30;13.43;;;;;;;;;;5096305;28;20084;-76
2023/01/07 13:51:06;;;;;;;10.38;9.27;;;;;;;;;;5094309;28;20451;-76
2023/01/07 13:53:44;;;;;;;8.45;7.60;;;;;;;;;;5094577;28;20070;-75
2023/01/07 13:56:13;;;;;;;30.50;27.30;;;;;;;;;;5085809;28;20042;-75
2023/01/07 13:58:43;;;;;;;19.95;17.80;;;;;;;;;;5099937;28;20111;-76
2023/01/07 14:01:18;;;;;;;25.95;22.73;;;;;;;;;;5079021;28;20027;-76
2023/01/07 14:03:48;;;;;;;35.75;31.75;;;;;;;;;;5098222;28;20031;-76
2023/01/07 14:06:19;;;;;;;46.30;40.90;;;;;;;;;;5094643;28;20024;-77
2023/01/07 14:08:49;;;;;;;25.83;22.38;;;;;;;;;;5099890;28;20034;-75
2023/01/07 14:11:14;;;;;;;77.90;61.67;;;;;;;;;;5099473;28;20020;-76
2023/01/07 14:13:43;;;;;;;59.70;47.05;;;;;;;;;;5094184;28;20039;-78
2023/01/07 14:16:12;;;;;;;60.03;46.83;;;;;;;;;;5086447;28;20016;-76
2023/01/07 14:18:43;;;;;;;38.38;30.02;;;;;;;;;;5097130;28;20518;-77
2023/01/07 14:21:19;;;;;;;192.13;106.88;;;;;;;;;;5099452;28;20024;-76